Time;durP1;ratioP1;P1;durP2;ratioP2;P2;SDS_P1;SDS_P2;PMS_P1;PMS_P2;Temp;Humidity;BMP_temperature;BMP_pressure;BME280_temperature;BME280_humidity;BME280_pressure;Samples;Min_cycle;Max_cycle;Signal;HPM_P1;HPM_P2
2022/10/15 00:00:33;;;;;;;14.45;7.30;;;14.70;99.90;;;;;;5036569;28;20030;-76
2022/10/15 00:02:59;;;;;;;14.85;9.40;;;14.80;99.90;;;;;;5018725;28;20033;-76
2022/10/15 00:05:25;;;;;;;15.32;8.90;;;14.80;99.90;;;;;;5018459;28;20095;-76
2022/10/15 00:07:51;;;;;;;17.80;8.77;;;14.80;99.90;;;;;;5034821;28;20131;-76
2022/10/15 00:10:17;;;;;;;13.95;8.05;;;14.90;99.90;;;;;;5018341;28;20029;-74
2022/10/15 00:12:43;;;;;;;12.85;8.10;;;14.90;99.90;;;;;;5035856;28;20026;-74
2022/10/15 00:15:09;;;;;;;14.70;7.93;;;15.00;99.90;;;;;;5018076;28;20401;-73
2022/10/15 00:17:35;;;;;;;18.98;10.00;;;15.00;99.90;;;;;;5018205;28;20025;-73
2022/10/15 00:20:04;;;;;;;15.65;8.82;;;14.90;99.90;;;;;;5026349;28;20029;-73
2022/10/15 00:22:29;;;;;;;16.48;8.55;;;15.00;99.90;;;;;;5018305;28;20018;-76
2022/10/15 00:24:55;;;;;;;18.35;9.38;;;14.90;99.90;;;;;;5017901;28;20044;-77
2022/10/15 00:27:48;;;;;;;14.88;8.13;;;14.90;99.90;;;;;;5017872;28;20030;-76
2022/10/15 00:30:14;;;;;;;15.00;7.60;;;15.00;99.90;;;;;;5018535;28;20376;-74
2022/10/15 00:32:39;;;;;;;16.23;9.07;;;15.00;99.90;;;;;;5017817;28;20025;-74
2022/10/15 00:35:05;;;;;;;18.70;8.25;;;14.90;99.90;;;;;;5035485;28;20113;-74
2022/10/15 00:37:31;;;;;;;19.02;9.20;;;14.90;99.90;;;;;;5017712;28;20022;-74
2022/10/15 00:39:56;;;;;;;14.82;7.88;;;15.00;99.90;;;;;;5017824;28;20025;-73
2022/10/15 00:42:22;;;;;;;17.55;8.70;;;14.90;99.90;;;;;;5022490;28;20032;-72
2022/10/15 00:44:55;;;;;;;14.93;8.65;;;14.90;99.90;;;;;;5019918;28;20052;-73
2022/10/15 00:47:26;;;;;;;12.50;8.20;;;14.90;99.90;;;;;;5037611;28;20029;-73
2022/10/15 00:49:55;;;;;;;16.75;8.63;;;14.90;99.90;;;;;;5037855;28;20025;-73
2022/10/15 00:52:35;;;;;;;13.77;8.00;;;14.90;99.90;;;;;;5035401;28;20033;-73
2022/10/15 00:55:07;;;;;;;17.67;9.85;;;14.80;99.90;;;;;;5036016;28;20030;-73
2022/10/15 00:57:32;;;;;;;20.80;9.10;;;14.90;99.90;;;;;;5036125;28;20103;-73
2022/10/15 01:00:03;;;;;;;15.25;8.10;;;14.90;99.90;;;;;;5037269;28;20018;-73
2022/10/15 01:02:29;;;;;;;13.48;7.65;;;14.90;99.90;;;;;;5035736;28;20121;-74
2022/10/15 01:04:55;;;;;;;13.95;8.15;;;14.90;99.90;;;;;;5019257;28;20064;-75
2022/10/15 01:07:20;;;;;;;14.95;7.95;;;14.90;99.90;;;;;;5035429;28;20068;-74
2022/10/15 01:09:46;;;;;;;14.20;6.82;;;14.90;99.90;;;;;;5018680;28;20021;-74
2022/10/15 01:12:41;;;;;;;13.25;7.35;;;14.90;99.90;;;;;;5018858;28;20025;-74
2022/10/15 01:15:23;;;;;;;14.98;7.75;;;14.90;99.90;;;;;;5035142;28;20025;-75
2022/10/15 01:18:08;;;;;;;15.90;8.15;;;14.90;99.90;;;;;;5035599;28;20030;-75
2022/10/15 01:20:52;;;;;;;13.07;5.78;;;14.90;99.90;;;;;;5034608;28;20020;-73
2022/10/15 01:23:36;;;;;;;13.75;7.72;;;14.90;99.90;;;;;;5035906;28;20057;-73
2022/10/15 01:26:22;;;;;;;20.13;7.05;;;14.90;99.90;;;;;;5041913;28;20025;-72
2022/10/15 01:29:24;;;;;;;17.10;7.40;;;14.90;99.90;;;;;;5035219;28;20021;-72
2022/10/15 01:32:02;;;;;;;12.32;6.00;;;14.90;99.90;;;;;;4939216;29;20601;-73
2022/10/15 01:34:41;;;;;;;11.88;7.07;;;14.90;99.90;;;;;;4941419;29;20039;-74
2022/10/15 01:37:12;;;;;;;12.52;6.88;;;15.00;99.90;;;;;;4938730;29;20035;-75
2022/10/15 01:40:04;;;;;;;11.95;6.93;;;15.00;99.90;;;;;;4955964;29;20501;-76
2022/10/15 01:42:39;;;;;;;12.02;7.32;;;14.90;99.90;;;;;;4954379;29;20044;-75
2022/10/15 01:45:08;;;;;;;13.73;7.32;;;14.90;99.90;;;;;;4937852;29;20035;-77
2022/10/15 01:47:43;;;;;;;15.20;8.40;;;15.00;99.90;;;;;;4938401;29;20046;-75
2022/10/15 01:50:11;;;;;;;14.98;6.95;;;15.00;99.90;;;;;;4938002;29;20503;-75
2022/10/15 01:52:39;;;;;;;13.23;6.70;;;15.00;99.90;;;;;;4953807;29;20035;-75
2022/10/15 01:55:07;;;;;;;11.38;6.68;;;15.00;99.90;;;;;;4938123;29;20090;-76
2022/10/15 01:57:34;;;;;;;9.80;5.63;;;15.10;99.90;;;;;;4939068;29;20030;-75
2022/10/15 02:00:03;;;;;;;12.82;7.03;;;15.10;99.90;;;;;;4939783;29;20042;-75
2022/10/15 02:02:28;;;;;;;13.48;6.72;;;15.10;99.90;;;;;;4939084;29;20123;-75
2022/10/15 02:04:54;;;;;;;13.70;6.63;;;15.10;99.90;;;;;;4940103;29;20047;-75
2022/10/15 02:07:53;;;;;;;12.57;7.00;;;15.10;99.90;;;;;;4975710;28;20392;-75
2022/10/15 02:10:24;;;;;;;14.48;7.38;;;15.10;99.90;;;;;;5037205;28;20104;-75
2022/10/15 02:13:03;;;;;;;15.65;7.35;;;15.00;99.90;;;;;;5035017;28;20033;-75
2022/10/15 02:15:44;;;;;;;13.68;6.78;;;15.00;99.90;;;;;;5033999;28;20029;-73
2022/10/15 02:18:28;;;;;;;12.25;6.85;;;15.00;99.90;;;;;;5035506;28;20029;-73
2022/10/15 02:20:58;;;;;;;12.02;6.28;;;15.00;99.90;;;;;;5033600;28;20029;-72
2022/10/15 02:23:37;;;;;;;14.25;6.93;;;15.00;99.90;;;;;;5034664;28;20029;-73
2022/10/15 02:26:06;;;;;;;13.65;7.32;;;15.00;99.90;;;;;;5034271;28;20028;-75
2022/10/15 02:28:33;;;;;;;12.80;6.57;;;15.00;99.90;;;;;;5015799;28;20531;-75
2022/10/15 02:31:00;;;;;;;13.05;6.47;;;15.00;99.90;;;;;;5020569;28;20085;-75
2022/10/15 02:33:28;;;;;;;12.00;6.28;;;15.10;99.90;;;;;;5025731;28;20059;-75
2022/10/15 02:35:54;;;;;;;14.55;7.10;;;15.10;99.90;;;;;;5024530;28;20026;-75
2022/10/15 02:38:23;;;;;;;12.10;6.85;;;15.10;99.90;;;;;;5034063;28;20022;-76
2022/10/15 02:40:49;;;;;;;15.77;7.45;;;15.00;99.90;;;;;;5016863;28;20099;-75
2022/10/15 02:43:19;;;;;;;13.75;6.80;;;15.00;99.90;;;;;;5032933;28;20118;-75
2022/10/15 02:45:44;;;;;;;13.70;6.47;;;15.00;99.90;;;;;;5016655;28;20066;-75
2022/10/15 02:48:10;;;;;;;13.20;6.72;;;15.00;99.90;;;;;;5034170;28;20029;-75
2022/10/15 02:50:35;;;;;;;14.02;7.35;;;15.00;99.90;;;;;;5017060;28;20029;-75
2022/10/15 02:53:01;;;;;;;14.55;7.30;;;15.00;99.90;;;;;;5016718;28;20026;-75
2022/10/15 02:55:26;;;;;;;16.60;6.80;;;14.90;99.90;;;;;;5033666;28;20052;-75
2022/10/15 02:57:52;;;;;;;13.18;7.05;;;14.90;99.90;;;;;;5034267;28;20037;-75
2022/10/15 03:00:18;;;;;;;14.30;7.20;;;14.80;99.90;;;;;;5016882;28;20021;-75
2022/10/15 03:02:44;;;;;;;16.00;7.68;;;14.80;99.90;;;;;;5015937;28;20069;-75
2022/10/15 03:05:09;;;;;;;17.02;7.10;;;14.80;99.90;;;;;;5053485;23;20037;-68
2022/10/15 03:07:35;;;;;;;16.10;7.60;;;14.80;99.90;;;;;;5032664;28;20111;-68
2022/10/15 03:10:01;;;;;;;14.15;7.28;;;14.80;99.90;;;;;;5015301;28;20029;-68
2022/10/15 03:12:26;;;;;;;18.65;6.63;;;14.80;99.90;;;;;;5016173;28;20025;-71
2022/10/15 03:14:52;;;;;;;17.52;7.00;;;14.80;99.90;;;;;;5017044;28;20056;-72
2022/10/15 03:17:18;;;;;;;14.23;7.00;;;14.80;99.90;;;;;;5018098;28;20465;-72
2022/10/15 03:19:43;;;;;;;13.75;6.35;;;14.80;99.90;;;;;;5019892;28;20048;-72
2022/10/15 03:22:09;;;;;;;13.32;6.53;;;14.90;99.90;;;;;;5019951;28;20026;-72
2022/10/15 03:24:34;;;;;;;13.88;6.13;;;14.90;99.90;;;;;;5020235;28;20036;-71
2022/10/15 03:27:00;;;;;;;14.30;6.45;;;14.90;99.90;;;;;;5019945;28;20049;-71
2022/10/15 03:29:25;;;;;;;12.40;7.00;;;15.00;99.90;;;;;;5020168;28;20506;-72
2022/10/15 03:31:51;;;;;;;14.93;6.47;;;15.00;99.90;;;;;;5019848;28;20392;-72
2022/10/15 03:34:17;;;;;;;12.60;6.25;;;14.90;99.90;;;;;;5019682;28;20052;-71
2022/10/15 03:36:43;;;;;;;13.90;6.38;;;14.90;99.90;;;;;;5037547;28;20033;-71
2022/10/15 03:39:10;;;;;;;11.77;6.45;;;14.90;99.90;;;;;;5020668;28;20051;-71
2022/10/15 03:41:36;;;;;;;14.32;6.55;;;14.90;99.90;;;;;;5037337;28;20435;-71
2022/10/15 03:44:03;;;;;;;17.25;6.13;;;14.90;99.90;;;;;;5018705;28;20076;-70
2022/10/15 03:46:29;;;;;;;15.95;6.95;;;14.90;99.90;;;;;;5019457;28;20080;-70
2022/10/15 03:48:55;;;;;;;12.30;5.82;;;14.80;99.90;;;;;;5034976;28;20029;-70
2022/10/15 03:51:20;;;;;;;10.43;4.55;;;14.80;99.90;;;;;;5019603;28;20103;-70
2022/10/15 03:53:45;;;;;;;11.30;5.63;;;14.80;99.90;;;;;;5018329;28;20083;-70
2022/10/15 03:56:11;;;;;;;14.02;5.72;;;14.80;99.90;;;;;;5018340;28;20087;-70
2022/10/15 03:58:37;;;;;;;10.38;5.22;;;14.80;99.90;;;;;;5036042;28;20052;-70
2022/10/15 04:01:08;;;;;;;10.45;5.18;;;14.80;99.90;;;;;;5035538;28;20024;-70
2022/10/15 04:03:34;;;;;;;15.00;5.38;;;14.80;99.90;;;;;;5035835;28;20064;-70
2022/10/15 04:05:59;;;;;;;19.20;5.30;;;14.80;99.90;;;;;;5018861;28;20481;-70
2022/10/15 04:08:25;;;;;;;9.25;5.03;;;14.80;99.90;;;;;;5036247;28;20100;-70
2022/10/15 04:10:50;;;;;;;11.00;5.32;;;14.80;99.90;;;;;;5018476;28;20018;-70
2022/10/15 04:13:16;;;;;;;12.23;5.38;;;14.80;99.90;;;;;;5036135;28;20152;-70
2022/10/15 04:15:41;;;;;;;11.90;5.40;;;14.80;99.90;;;;;;5018982;28;20032;-70
2022/10/15 04:18:07;;;;;;;13.88;6.03;;;14.90;99.90;;;;;;5018302;28;20028;-70
2022/10/15 04:20:32;;;;;;;14.18;6.60;;;14.80;99.90;;;;;;5036046;28;20465;-70
2022/10/15 04:22:58;;;;;;;15.55;7.03;;;14.80;99.90;;;;;;5018432;28;20112;-70
2022/10/15 04:25:23;;;;;;;14.80;7.38;;;14.80;99.90;;;;;;5035731;28;20104;-70
2022/10/15 04:27:49;;;;;;;15.82;7.30;;;14.80;99.90;;;;;;5018117;28;20427;-70
2022/10/15 04:30:15;;;;;;;13.50;6.82;;;14.80;99.90;;;;;;5036068;28;20037;-70
2022/10/15 04:32:40;;;;;;;16.77;6.75;;;14.80;99.90;;;;;;5019144;28;20022;-71
2022/10/15 04:35:06;;;;;;;14.90;7.07;;;14.80;99.90;;;;;;5019288;28;20105;-71
2022/10/15 04:37:33;;;;;;;13.48;6.53;;;14.80;99.90;;;;;;5020378;28;20016;-71
2022/10/15 04:39:58;;;;;;;12.73;5.45;;;14.80;99.90;;;;;;5019570;28;20096;-71
2022/10/15 04:42:24;;;;;;;16.33;5.72;;;14.80;99.90;;;;;;5018798;28;20037;-71
2022/10/15 04:44:49;;;;;;;12.27;6.00;;;14.70;99.90;;;;;;5018857;28;20026;-71
2022/10/15 04:47:15;;;;;;;15.50;5.88;;;14.70;99.90;;;;;;5036748;28;20064;-72
2022/10/15 04:49:40;;;;;;;11.80;5.50;;;14.70;99.90;;;;;;5018489;28;20026;-72
2022/10/15 04:52:06;;;;;;;11.98;5.70;;;14.80;99.90;;;;;;5019312;28;20026;-72
2022/10/15 04:54:31;;;;;;;13.25;5.78;;;14.80;99.90;;;;;;5018612;28;20017;-70
2022/10/15 04:56:57;;;;;;;10.93;5.50;;;14.80;99.90;;;;;;5034473;28;20022;-70
2022/10/15 04:59:23;;;;;;;11.40;5.88;;;14.80;99.90;;;;;;5017584;28;20028;-70
2022/10/15 05:01:48;;;;;;;10.05;5.63;;;14.80;99.90;;;;;;5017068;28;20021;-70
2022/10/15 05:04:14;;;;;;;10.98;6.03;;;14.80;99.90;;;;;;5017813;28;20087;-70
2022/10/15 05:06:39;;;;;;;11.10;4.88;;;14.90;99.90;;;;;;5035050;28;20392;-70
2022/10/15 05:09:05;;;;;;;10.20;5.47;;;14.80;99.90;;;;;;5018324;28;20100;-70
2022/10/15 05:11:30;;;;;;;9.40;4.97;;;14.80;99.90;;;;;;5043153;28;20030;-70
2022/10/15 05:13:57;;;;;;;9.35;4.75;;;14.80;99.90;;;;;;5034654;28;20448;-70
2022/10/15 05:16:28;;;;;;;10.57;5.20;;;14.80;99.90;;;;;;5017305;28;20022;-70
2022/10/15 05:18:59;;;;;;;10.57;5.15;;;14.80;99.90;;;;;;5018141;28;20028;-70
2022/10/15 05:21:26;;;;;;;9.52;4.28;;;14.80;99.90;;;;;;5035142;28;20036;-70
2022/10/15 05:23:51;;;;;;;9.43;4.65;;;14.80;99.90;;;;;;5017581;28;20052;-70
2022/10/15 05:26:20;;;;;;;9.07;4.70;;;14.80;99.90;;;;;;5016741;28;20025;-70
2022/10/15 05:28:45;;;;;;;12.57;4.78;;;14.80;99.90;;;;;;5016716;28;20075;-70
2022/10/15 05:31:13;;;;;;;15.63;4.80;;;14.70;99.90;;;;;;5034739;28;20025;-70
2022/10/15 05:33:39;;;;;;;9.20;5.13;;;14.70;99.90;;;;;;5034308;28;20025;-70
2022/10/15 05:36:08;;;;;;;10.70;4.75;;;14.70;99.90;;;;;;5034774;28;20101;-70
2022/10/15 05:38:33;;;;;;;12.00;5.38;;;14.70;99.90;;;;;;5033256;28;20029;-70
2022/10/15 05:40:59;;;;;;;10.70;5.10;;;14.70;99.90;;;;;;5016963;28;20365;-70
2022/10/15 05:43:24;;;;;;;9.50;4.72;;;14.70;99.90;;;;;;5024050;28;20038;-70
2022/10/15 05:45:53;;;;;;;13.13;5.15;;;14.70;99.90;;;;;;5017104;28;20022;-70
2022/10/15 05:48:19;;;;;;;11.68;4.55;;;14.70;99.90;;;;;;5016857;28;20021;-70
2022/10/15 05:50:44;;;;;;;13.98;4.65;;;14.70;99.90;;;;;;5016676;28;20037;-70
2022/10/15 05:53:10;;;;;;;10.40;4.63;;;14.70;99.90;;;;;;5016127;28;20094;-70
2022/10/15 05:55:36;;;;;;;11.65;4.15;;;14.80;99.90;;;;;;5016852;28;20025;-70
2022/10/15 05:58:02;;;;;;;6.50;3.75;;;14.80;99.90;;;;;;5016431;28;20032;-70
2022/10/15 06:00:28;;;;;;;7.18;3.78;;;14.80;99.90;;;;;;5034167;28;20025;-70
2022/10/15 06:02:54;;;;;;;10.45;3.63;;;14.90;99.90;;;;;;5017063;28;20040;-70
2022/10/15 06:05:19;;;;;;;5.93;3.38;;;14.90;99.90;;;;;;5034544;28;20056;-70
2022/10/15 06:07:45;;;;;;;8.32;3.72;;;14.90;99.90;;;;;;5016086;28;20537;-70
2022/10/15 06:10:10;;;;;;;8.95;3.60;;;14.80;99.90;;;;;;5016034;28;20071;-70
2022/10/15 06:12:38;;;;;;;7.47;4.07;;;14.80;99.90;;;;;;5015888;28;20029;-70
2022/10/15 06:15:04;;;;;;;6.25;3.90;;;14.70;99.90;;;;;;5032284;28;20018;-70
2022/10/15 06:17:30;;;;;;;7.90;3.78;;;14.70;99.90;;;;;;5015858;28;20044;-70
2022/10/15 06:19:55;;;;;;;9.43;4.43;;;14.70;99.90;;;;;;5016626;28;20017;-70
2022/10/15 06:22:21;;;;;;;11.25;3.85;;;14.70;99.90;;;;;;5016656;28;20022;-70
2022/10/15 06:24:46;;;;;;;6.78;3.85;;;14.80;99.90;;;;;;5033428;28;20358;-70
2022/10/15 06:27:12;;;;;;;7.05;3.38;;;14.80;99.90;;;;;;5015756;28;20029;-70
2022/10/15 06:29:38;;;;;;;5.10;2.78;;;14.80;99.90;;;;;;5015826;28;20029;-70
2022/10/15 06:32:07;;;;;;;7.30;3.83;;;14.90;99.90;;;;;;5015624;28;20021;-70
2022/10/15 06:34:33;;;;;;;17.73;4.70;;;14.90;99.90;;;;;;5016602;28;20026;-70
2022/10/15 06:36:58;;;;;;;7.30;3.42;;;14.90;99.90;;;;;;5015767;28;20023;-70
2022/10/15 06:39:24;;;;;;;9.13;3.78;;;14.90;99.90;;;;;;5016096;28;20028;-70
2022/10/15 06:41:49;;;;;;;6.90;3.97;;;14.80;99.90;;;;;;5015798;28;20036;-70
2022/10/15 06:44:15;;;;;;;9.55;4.03;;;14.80;99.90;;;;;;5016363;28;20091;-70
2022/10/15 06:46:40;;;;;;;7.38;3.65;;;14.70;99.90;;;;;;5015620;28;20021;-70
2022/10/15 06:49:06;;;;;;;7.22;3.78;;;14.80;99.90;;;;;;5039821;28;20025;-70
2022/10/15 06:51:31;;;;;;;7.80;3.80;;;14.70;99.90;;;;;;5017518;28;20044;-70
2022/10/15 06:53:57;;;;;;;9.85;3.83;;;14.70;99.90;;;;;;5037577;28;20028;-70
2022/10/15 06:56:23;;;;;;;10.57;4.07;;;14.80;99.90;;;;;;5019903;28;20021;-70
2022/10/15 06:58:48;;;;;;;6.60;3.60;;;14.70;99.90;;;;;;5037658;28;20041;-70
2022/10/15 07:01:14;;;;;;;7.05;3.83;;;14.80;99.90;;;;;;5019546;28;20116;-70
2022/10/15 07:03:40;;;;;;;7.30;3.45;;;14.80;99.90;;;;;;5019112;28;20059;-70
2022/10/15 07:06:07;;;;;;;8.57;3.97;;;14.80;99.90;;;;;;5020184;28;20025;-70
2022/10/15 07:08:33;;;;;;;5.00;3.30;;;14.80;99.90;;;;;;5019785;28;20032;-70
2022/10/15 07:11:04;;;;;;;10.43;3.90;;;14.90;99.90;;;;;;5019262;28;20079;-70
2022/10/15 07:13:30;;;;;;;6.78;3.70;;;14.90;99.90;;;;;;5019862;28;20060;-70
2022/10/15 07:15:55;;;;;;;8.63;3.83;;;15.00;99.90;;;;;;5019094;28;20028;-68
2022/10/15 07:18:21;;;;;;;5.57;3.30;;;15.00;99.90;;;;;;5019122;28;20108;-68
2022/10/15 07:20:47;;;;;;;5.57;3.25;;;15.10;99.90;;;;;;5019209;28;20060;-68
2022/10/15 07:23:13;;;;;;;8.65;3.05;;;15.10;99.90;;;;;;5019189;28;20058;-70
2022/10/15 07:25:38;;;;;;;8.70;4.00;;;15.10;99.90;;;;;;5019586;28;20037;-70
2022/10/15 07:28:05;;;;;;;6.50;3.47;;;15.20;99.90;;;;;;5036228;28;20544;-70
2022/10/15 07:30:31;;;;;;;5.40;3.50;;;15.20;99.90;;;;;;5018901;28;20025;-70
2022/10/15 07:32:58;;;;;;;6.13;3.90;;;15.20;99.90;;;;;;5019123;28;20025;-70
2022/10/15 07:35:25;;;;;;;6.82;3.92;;;15.20;99.90;;;;;;5019213;28;20025;-70
2022/10/15 07:37:50;;;;;;;7.68;3.90;;;15.10;99.90;;;;;;5019054;28;20021;-70
2022/10/15 07:40:17;;;;;;;6.03;3.33;;;15.10;99.90;;;;;;5019750;28;20029;-71
2022/10/15 07:42:42;;;;;;;4.68;3.17;;;15.10;99.90;;;;;;5036642;28;20104;-71
2022/10/15 07:45:08;;;;;;;14.88;3.80;;;15.00;99.90;;;;;;5020114;28;20026;-71
2022/10/15 07:47:34;;;;;;;7.47;4.13;;;15.00;99.90;;;;;;5020593;28;20033;-72
2022/10/15 07:49:59;;;;;;;6.22;3.22;;;15.00;99.90;;;;;;5037865;28;20048;-68
2022/10/15 07:52:25;;;;;;;9.85;3.35;;;15.00;99.90;;;;;;5019956;28;20029;-68
2022/10/15 07:54:50;;;;;;;6.03;3.35;;;15.00;99.90;;;;;;5045670;28;20026;-68
2022/10/15 07:57:16;;;;;;;7.10;3.53;;;14.90;99.90;;;;;;5042493;28;20033;-68
2022/10/15 07:59:42;;;;;;;8.63;3.50;;;15.00;99.90;;;;;;5023105;28;20024;-68
2022/10/15 08:02:15;;;;;;;5.93;2.83;;;15.10;99.90;;;;;;5018730;28;20116;-68
2022/10/15 08:04:41;;;;;;;4.50;2.95;;;15.20;99.90;;;;;;5019161;28;20037;-69
2022/10/15 08:07:06;;;;;;;5.63;3.55;;;15.30;99.90;;;;;;5019398;28;20156;-68
2022/10/15 08:09:32;;;;;;;3.47;2.25;;;15.30;99.90;;;;;;5018759;28;20025;-70
2022/10/15 08:11:57;;;;;;;4.60;2.75;;;15.30;99.90;;;;;;5018700;28;20029;-70
2022/10/15 08:14:23;;;;;;;3.50;2.30;;;15.40;99.90;;;;;;5036436;28;20026;-70
2022/10/15 08:16:48;;;;;;;4.20;2.67;;;15.40;99.90;;;;;;5018157;28;20018;-70
2022/10/15 08:19:16;;;;;;;5.85;2.90;;;15.40;99.90;;;;;;5019766;28;20018;-72
2022/10/15 08:21:43;;;;;;;6.53;2.97;;;15.40;99.90;;;;;;5020237;28;20028;-72
2022/10/15 08:24:09;;;;;;;6.43;3.75;;;15.40;99.90;;;;;;5020736;28;20049;-72
2022/10/15 08:26:35;;;;;;;5.40;3.10;;;15.40;99.90;;;;;;5019744;28;20048;-71
2022/10/15 08:29:00;;;;;;;9.52;4.05;;;15.40;99.90;;;;;;5019378;28;20025;-70
2022/10/15 08:31:26;;;;;;;7.75;3.42;;;15.50;99.90;;;;;;5035419;28;20028;-71
2022/10/15 08:33:52;;;;;;;11.65;5.13;;;15.50;99.90;;;;;;5035249;28;20079;-71
2022/10/15 08:36:17;;;;;;;12.32;4.70;;;15.50;99.90;;;;;;5018443;28;20022;-71
2022/10/15 08:38:43;;;;;;;6.78;3.20;;;15.50;99.90;;;;;;5017901;28;20021;-71
2022/10/15 08:41:22;;;;;;;10.35;4.25;;;15.60;99.90;;;;;;5035197;28;20025;-71
2022/10/15 08:43:48;;;;;;;10.68;5.10;;;15.60;99.90;;;;;;5035257;28;20060;-71
2022/10/15 08:46:24;;;;;;;4.50;2.75;;;15.60;99.90;;;;;;5018571;28;20025;-72
2022/10/15 08:48:55;;;;;;;6.25;2.72;;;15.60;99.90;;;;;;5019257;28;20079;-74
2022/10/15 08:51:23;;;;;;;6.43;3.05;;;15.60;99.90;;;;;;5038145;28;20469;-74
2022/10/15 08:53:56;;;;;;;5.43;2.55;;;15.60;99.90;;;;;;5023240;28;20029;-73
2022/10/15 08:56:42;;;;;;;4.45;2.65;;;15.60;99.90;;;;;;5021871;28;20116;-71
2022/10/15 08:59:22;;;;;;;9.52;2.50;;;15.60;99.90;;;;;;5018317;28;20060;-72
2022/10/15 09:02:14;;;;;;;6.05;2.75;;;15.60;99.90;;;;;;5047908;28;20033;-72
2022/10/15 09:05:04;;;;;;;4.95;2.63;;;15.60;99.90;;;;;;5060951;23;20115;-73
2022/10/15 09:07:45;;;;;;;7.25;2.08;;;15.70;99.90;;;;;;5034188;28;20052;-73
2022/10/15 09:10:16;;;;;;;14.27;4.53;;;15.80;99.90;;;;;;5017071;28;20021;-74
2022/10/15 09:12:52;;;;;;;4.22;2.58;;;15.80;99.90;;;;;;5033297;28;20092;-74
2022/10/15 09:15:20;;;;;;;4.80;2.60;;;15.80;99.90;;;;;;5032330;28;20025;-73
2022/10/15 09:17:48;;;;;;;4.90;2.35;;;15.90;99.90;;;;;;5017023;28;20018;-73
2022/10/15 09:20:17;;;;;;;3.55;2.20;;;15.90;99.90;;;;;;5034682;28;20455;-73
2022/10/15 09:22:48;;;;;;;4.18;2.33;;;15.90;99.90;;;;;;5034383;28;20088;-73
2022/10/15 09:25:16;;;;;;;2.97;1.88;;;15.90;99.90;;;;;;5034366;28;20029;-74
2022/10/15 09:27:45;;;;;;;4.15;1.63;;;15.90;99.90;;;;;;5016743;28;20029;-74
2022/10/15 09:30:36;;;;;;;3.25;1.77;;;16.00;99.90;;;;;;5033097;28;20079;-73
2022/10/15 09:33:14;;;;;;;2.22;0.82;;;16.20;99.90;;;;;;5016806;28;20056;-73
2022/10/15 09:35:44;;;;;;;2.33;1.13;;;16.30;99.90;;;;;;5033315;28;20025;-74
2022/10/15 09:38:50;;;;;;;1.93;1.10;;;16.40;99.90;;;;;;5016659;28;20028;-74
2022/10/15 09:41:46;;;;;;;1.23;0.75;;;16.40;99.90;;;;;;5034275;28;20248;-74
2022/10/15 09:44:14;;;;;;;1.00;0.88;;;16.50;99.90;;;;;;5032809;28;20494;-74
2022/10/15 09:46:45;;;;;;;0.93;0.60;;;16.60;99.90;;;;;;5016728;28;20017;-74
2022/10/15 09:49:24;;;;;;;1.58;0.90;;;16.60;99.90;;;;;;5034070;28;20028;-75
2022/10/15 09:52:07;;;;;;;5.57;0.85;;;16.60;99.90;;;;;;5016278;28;20427;-73
2022/10/15 09:54:43;;;;;;;3.03;0.77;;;16.60;99.90;;;;;;5032655;28;20049;-73
2022/10/15 09:57:13;;;;;;;3.13;0.80;;;16.70;99.90;;;;;;5034540;28;20022;-73
2022/10/15 09:59:54;;;;;;;0.63;0.63;;;16.70;99.90;;;;;;5016064;28;20026;-73
2022/10/15 10:02:23;;;;;;;1.87;0.80;;;16.80;99.90;;;;;;5017145;28;20022;-72
2022/10/15 10:04:49;;;;;;;1.33;0.65;;;16.80;99.90;;;;;;5016600;28;20272;-73
2022/10/15 10:07:30;;;;;;;0.43;0.35;;;16.90;99.90;;;;;;5016018;28;20083;-73
2022/10/15 10:09:58;;;;;;;1.80;0.70;;;16.90;99.90;;;;;;5033972;28;20105;-73
2022/10/15 10:12:31;;;;;;;1.25;0.80;;;16.90;99.90;;;;;;5032310;28;20287;-73
2022/10/15 10:15:21;;;;;;;4.53;1.05;;;17.00;99.90;;;;;;5015884;28;20029;-73
2022/10/15 10:17:55;;;;;;;1.00;0.70;;;17.00;99.90;;;;;;5033163;28;20030;-73
2022/10/15 10:20:23;;;;;;;2.45;0.88;;;17.00;99.90;;;;;;5016063;28;20071;-72
2022/10/15 10:23:03;;;;;;;1.65;0.73;;;17.00;99.90;;;;;;5015788;28;20025;-72
2022/10/15 10:25:33;;;;;;;1.00;0.60;;;17.00;99.90;;;;;;5016548;28;20030;-71
2022/10/15 10:28:12;;;;;;;2.17;0.73;;;16.90;99.90;;;;;;5015791;28;20052;-71
2022/10/15 10:30:47;;;;;;;1.90;1.40;;;16.90;99.90;;;;;;5033691;28;20059;-71
2022/10/15 10:33:17;;;;;;;3.03;1.63;;;16.90;99.90;;;;;;5015577;28;20481;-71
2022/10/15 10:35:46;;;;;;;1.27;1.10;;;16.80;99.90;;;;;;5033558;28;20037;-72
2022/10/15 10:38:40;;;;;;;1.42;1.30;;;16.90;99.90;;;;;;5033284;28;20069;-72
2022/10/15 10:41:08;;;;;;;2.63;2.00;;;17.00;99.90;;;;;;5013181;28;20125;-72
2022/10/15 10:43:53;;;;;;;1.58;1.40;;;17.00;99.90;;;;;;5033186;28;20036;-72
2022/10/15 10:46:21;;;;;;;3.08;1.73;;;17.00;99.90;;;;;;5033223;28;20025;-72
2022/10/15 10:48:53;;;;;;;3.70;1.10;;;17.10;99.90;;;;;;5033126;28;20024;-72
2022/10/15 10:51:22;;;;;;;3.35;1.40;;;17.00;99.90;;;;;;5015448;28;20029;-72
2022/10/15 10:54:00;;;;;;;1.65;0.82;;;17.00;99.90;;;;;;5031908;28;20384;-72
2022/10/15 10:56:38;;;;;;;2.90;1.40;;;17.00;99.90;;;;;;5033051;28;20028;-72
2022/10/15 10:59:16;;;;;;;1.73;1.10;;;17.10;99.90;;;;;;5015452;28;20017;-71
2022/10/15 11:01:42;;;;;;;2.33;1.45;;;17.10;99.90;;;;;;5031850;28;20120;-71
2022/10/15 11:04:27;;;;;;;2.22;1.35;;;17.10;99.90;;;;;;5015321;28;20096;-72
2022/10/15 11:07:05;;;;;;;1.20;1.10;;;17.20;99.90;;;;;;5031940;28;20055;-72
2022/10/15 11:10:01;;;;;;;1.20;1.10;;;17.20;99.90;;;;;;5033391;28;20029;-72
2022/10/15 11:12:42;;;;;;;3.03;1.00;;;17.10;99.90;;;;;;5032947;28;20057;-72
2022/10/15 11:15:26;;;;;;;2.50;1.00;;;17.00;99.90;;;;;;5033034;28;20022;-72
2022/10/15 11:18:20;;;;;;;1.13;0.90;;;17.00;99.90;;;;;;5033222;28;20022;-72
2022/10/15 11:21:00;;;;;;;1.50;1.00;;;17.00;99.90;;;;;;5032573;28;20068;-72
2022/10/15 11:24:07;;;;;;;1.08;0.93;;;17.00;99.90;;;;;;5031769;28;20453;-72
2022/10/15 11:26:50;;;;;;;7.70;1.40;;;17.10;99.90;;;;;;5015836;28;20036;-72
2022/10/15 11:29:40;;;;;;;1.95;1.55;;;17.10;99.90;;;;;;5031678;28;20021;-72
2022/10/15 11:32:29;;;;;;;3.03;1.40;;;17.10;99.90;;;;;;5033118;28;20025;-72
2022/10/15 11:35:13;;;;;;;1.98;1.63;;;17.10;99.90;;;;;;5015032;28;20116;-72
2022/10/15 11:37:56;;;;;;;2.55;1.70;;;17.10;99.90;;;;;;5032892;28;20030;-72
2022/10/15 11:40:38;;;;;;;4.93;1.90;;;17.10;99.90;;;;;;5036328;28;20021;-72
2022/10/15 11:43:14;;;;;;;;;;;17.00;99.90;;;;;;5036706;28;20048;-72
2022/10/15 11:46:02;;;;;;;1.90;1.55;;;17.00;99.90;;;;;;5035470;28;19909;-72
2022/10/15 11:48:27;;;;;;;5.15;1.30;;;17.00;99.90;;;;;;5035122;28;20025;-72
2022/10/15 11:51:07;;;;;;;7.32;1.92;;;17.20;99.90;;;;;;5035036;28;20040;-73
2022/10/15 11:53:50;;;;;;;3.38;1.33;;;17.30;99.90;;;;;;5018389;28;20453;-72
2022/10/15 11:56:17;;;;;;;4.38;1.27;;;17.50;99.90;;;;;;5018432;28;20018;-72
2022/10/15 11:58:50;;;;;;;1.40;1.00;;;17.60;99.90;;;;;;5018329;28;20059;-72
2022/10/15 12:01:59;;;;;;;0.82;0.75;;;18.00;99.90;;;;;;5018516;28;20400;-72
2022/10/15 12:04:29;;;;;;;0.77;0.65;;;18.30;99.90;;;;;;4975131;28;20155;-72
2022/10/15 12:06:57;;;;;;;0.60;0.60;;;18.70;99.90;;;;;;4975236;28;20031;-72
2022/10/15 12:09:30;;;;;;;0.85;0.70;;;18.90;99.90;;;;;;4975060;28;20126;-72
2022/10/15 12:12:09;;;;;;;0.60;0.60;;;19.00;99.90;;;;;;4974929;28;20078;-72
2022/10/15 12:14:44;;;;;;;0.88;0.75;;;19.00;99.90;;;;;;4974878;28;20031;-72
2022/10/15 12:17:29;;;;;;;1.40;0.60;;;18.90;99.90;;;;;;4975334;28;20030;-72
2022/10/15 12:20:01;;;;;;;1.13;0.52;;;18.90;99.90;;;;;;4975150;28;20082;-72
2022/10/15 12:22:53;;;;;;;0.93;0.47;;;18.90;99.90;;;;;;4975789;28;20030;-71
2022/10/15 12:25:33;;;;;;;0.60;0.50;;;18.80;99.90;;;;;;4974761;28;20038;-72
2022/10/15 12:28:11;;;;;;;2.10;0.70;;;18.70;99.90;;;;;;4975025;28;20584;-71
2022/10/15 12:30:37;;;;;;;0.70;0.70;;;18.60;99.90;;;;;;4974943;28;20142;-71
2022/10/15 12:33:20;;;;;;;2.83;0.95;;;18.50;99.90;;;;;;4974577;28;20415;-72
2022/10/15 12:35:56;;;;;;;1.08;0.70;;;18.50;99.90;;;;;;4974609;28;20114;-71
2022/10/15 12:38:33;;;;;;;1.58;0.85;;;18.60;99.90;;;;;;4974553;28;20029;-71
2022/10/15 12:41:01;;;;;;;4.80;0.73;;;18.60;99.90;;;;;;4993546;28;20132;-71
2022/10/15 12:43:28;;;;;;;2.30;0.68;;;18.60;99.90;;;;;;5034025;28;20052;-72
2022/10/15 12:46:03;;;;;;;0.70;0.70;;;18.60;99.90;;;;;;5017451;28;20025;-72
2022/10/15 12:48:38;;;;;;;0.80;0.70;;;18.50;99.90;;;;;;5017376;28;20112;-72
2022/10/15 12:51:18;;;;;;;1.15;1.05;;;18.50;99.90;;;;;;5017821;28;20108;-72
2022/10/15 12:53:45;;;;;;;6.43;3.28;;;18.60;99.90;;;;;;5033849;28;20097;-72
2022/10/15 12:56:17;;;;;;;14.40;7.40;;;18.60;99.90;;;;;;5017423;28;20022;-72
2022/10/15 12:58:43;;;;;;;;;;;18.50;99.90;;;;;;5035442;28;20028;-71
2022/10/15 13:01:11;;;;;;;21.30;10.75;;;18.50;99.90;;;;;;5033806;28;19927;-71